sensor_id;sensor_type;location;lat;lon;timestamp;P1;durP1;ratioP1;P2;durP2;ratioP2
21330;SDS011;10824;51.632;4.950;2023-04-24T00:01:28;6.93;;;3.63;;
21330;SDS011;10824;51.632;4.950;2023-04-24T00:03:56;5.32;;;3.05;;
21330;SDS011;10824;51.632;4.950;2023-04-24T00:06:26;6.20;;;3.15;;
21330;SDS011;10824;51.632;4.950;2023-04-24T00:08:59;8.15;;;4.05;;
21330;SDS011;10824;51.632;4.950;2023-04-24T00:11:27;5.38;;;2.83;;
21330;SDS011;10824;51.632;4.950;2023-04-24T00:13:55;7.28;;;3.55;;
21330;SDS011;10824;51.632;4.950;2023-04-24T00:16:23;6.55;;;3.90;;
21330;SDS011;10824;51.632;4.950;2023-04-24T00:18:50;11.52;;;4.07;;
21330;SDS011;10824;51.632;4.950;2023-04-24T00:21:19;6.35;;;3.35;;
21330;SDS011;10824;51.632;4.950;2023-04-24T00:23:47;5.30;;;3.28;;
21330;SDS011;10824;51.632;4.950;2023-04-24T00:26:14;9.10;;;3.80;;
21330;SDS011;10824;51.632;4.950;2023-04-24T00:28:41;5.28;;;3.20;;
21330;SDS011;10824;51.632;4.950;2023-04-24T00:31:08;7.57;;;3.38;;
21330;SDS011;10824;51.632;4.950;2023-04-24T00:33:35;6.43;;;3.22;;
21330;SDS011;10824;51.632;4.950;2023-04-24T00:36:03;9.15;;;3.65;;
21330;SDS011;10824;51.632;4.950;2023-04-24T00:38:30;8.15;;;3.00;;
21330;SDS011;10824;51.632;4.950;2023-04-24T00:40:57;6.47;;;3.15;;
21330;SDS011;10824;51.632;4.950;2023-04-24T00:43:24;7.47;;;2.83;;
21330;SDS011;10824;51.632;4.950;2023-04-24T00:45:52;7.28;;;4.15;;
21330;SDS011;10824;51.632;4.950;2023-04-24T00:48:20;9.82;;;4.15;;
21330;SDS011;10824;51.632;4.950;2023-04-24T00:50:47;6.25;;;3.42;;
21330;SDS011;10824;51.632;4.950;2023-04-24T00:53:14;7.65;;;3.80;;
21330;SDS011;10824;51.632;4.950;2023-04-24T00:55:41;9.00;;;4.22;;
21330;SDS011;10824;51.632;4.950;2023-04-24T00:58:09;6.90;;;3.50;;
21330;SDS011;10824;51.632;4.950;2023-04-24T01:00:36;10.65;;;3.88;;
21330;SDS011;10824;51.632;4.950;2023-04-24T01:03:04;10.15;;;4.45;;
21330;SDS011;10824;51.632;4.950;2023-04-24T01:05:32;7.90;;;4.45;;
21330;SDS011;10824;51.632;4.950;2023-04-24T01:08:00;6.95;;;3.65;;
21330;SDS011;10824;51.632;4.950;2023-04-24T01:10:28;7.72;;;4.15;;
21330;SDS011;10824;51.632;4.950;2023-04-24T01:12:58;5.80;;;3.42;;
21330;SDS011;10824;51.632;4.950;2023-04-24T01:15:26;8.50;;;3.63;;
21330;SDS011;10824;51.632;4.950;2023-04-24T01:17:53;7.10;;;4.07;;
21330;SDS011;10824;51.632;4.950;2023-04-24T01:20:20;5.95;;;3.72;;
21330;SDS011;10824;51.632;4.950;2023-04-24T01:22:48;8.95;;;3.92;;
21330;SDS011;10824;51.632;4.950;2023-04-24T01:25:15;5.35;;;2.50;;
21330;SDS011;10824;51.632;4.950;2023-04-24T01:27:42;6.85;;;3.53;;
21330;SDS011;10824;51.632;4.950;2023-04-24T01:30:10;5.43;;;3.75;;
21330;SDS011;10824;51.632;4.950;2023-04-24T01:32:38;6.50;;;3.10;;
21330;SDS011;10824;51.632;4.950;2023-04-24T01:35:06;5.65;;;3.28;;
21330;SDS011;10824;51.632;4.950;2023-04-24T01:37:34;6.78;;;3.88;;
21330;SDS011;10824;51.632;4.950;2023-04-24T01:40:04;8.40;;;4.20;;
21330;SDS011;10824;51.632;4.950;2023-04-24T01:42:33;6.82;;;3.22;;
21330;SDS011;10824;51.632;4.950;2023-04-24T01:45:02;6.47;;;3.92;;
21330;SDS011;10824;51.632;4.950;2023-04-24T01:47:31;7.57;;;4.55;;
21330;SDS011;10824;51.632;4.950;2023-04-24T01:49:58;9.18;;;4.80;;
21330;SDS011;10824;51.632;4.950;2023-04-24T01:52:26;10.63;;;4.65;;
21330;SDS011;10824;51.632;4.950;2023-04-24T01:54:53;7.30;;;3.78;;
21330;SDS011;10824;51.632;4.950;2023-04-24T01:57:22;6.65;;;4.20;;
21330;SDS011;10824;51.632;4.950;2023-04-24T01:59:49;12.50;;;4.05;;
21330;SDS011;10824;51.632;4.950;2023-04-24T02:02:17;6.32;;;4.05;;
21330;SDS011;10824;51.632;4.950;2023-04-24T02:04:44;7.03;;;3.40;;
21330;SDS011;10824;51.632;4.950;2023-04-24T02:07:11;6.88;;;3.40;;
21330;SDS011;10824;51.632;4.950;2023-04-24T02:09:38;8.65;;;4.30;;
21330;SDS011;10824;51.632;4.950;2023-04-24T02:12:06;8.07;;;4.10;;
21330;SDS011;10824;51.632;4.950;2023-04-24T02:14:33;8.73;;;2.95;;
21330;SDS011;10824;51.632;4.950;2023-04-24T02:17:02;9.18;;;3.67;;
21330;SDS011;10824;51.632;4.950;2023-04-24T02:19:29;9.48;;;3.63;;
21330;SDS011;10824;51.632;4.950;2023-04-24T02:21:56;8.98;;;3.67;;
21330;SDS011;10824;51.632;4.950;2023-04-24T02:24:23;6.07;;;3.20;;
21330;SDS011;10824;51.632;4.950;2023-04-24T02:26:50;7.80;;;3.60;;
21330;SDS011;10824;51.632;4.950;2023-04-24T02:29:17;6.55;;;3.95;;
21330;SDS011;10824;51.632;4.950;2023-04-24T02:31:44;6.00;;;3.60;;
21330;SDS011;10824;51.632;4.950;2023-04-24T02:34:13;6.53;;;3.25;;
21330;SDS011;10824;51.632;4.950;2023-04-24T02:36:41;11.20;;;3.92;;
21330;SDS011;10824;51.632;4.950;2023-04-24T02:39:08;4.70;;;3.70;;
21330;SDS011;10824;51.632;4.950;2023-04-24T02:41:38;4.82;;;2.67;;
21330;SDS011;10824;51.632;4.950;2023-04-24T02:44:07;7.25;;;3.45;;
21330;SDS011;10824;51.632;4.950;2023-04-24T02:46:34;7.40;;;3.17;;
21330;SDS011;10824;51.632;4.950;2023-04-24T02:49:01;5.05;;;3.17;;
21330;SDS011;10824;51.632;4.950;2023-04-24T02:51:29;8.60;;;4.43;;
21330;SDS011;10824;51.632;4.950;2023-04-24T02:53:56;14.20;;;4.38;;
21330;SDS011;10824;51.632;4.950;2023-04-24T02:56:23;8.38;;;3.70;;
21330;SDS011;10824;51.632;4.950;2023-04-24T02:58:51;6.75;;;3.20;;
21330;SDS011;10824;51.632;4.950;2023-04-24T03:01:18;5.57;;;2.90;;
21330;SDS011;10824;51.632;4.950;2023-04-24T03:03:45;6.55;;;3.05;;
21330;SDS011;10824;51.632;4.950;2023-04-24T03:06:13;6.53;;;3.75;;
21330;SDS011;10824;51.632;4.950;2023-04-24T03:08:40;9.38;;;3.38;;
21330;SDS011;10824;51.632;4.950;2023-04-24T03:11:07;7.00;;;3.15;;
21330;SDS011;10824;51.632;4.950;2023-04-24T03:13:34;6.57;;;3.13;;
21330;SDS011;10824;51.632;4.950;2023-04-24T03:16:01;8.90;;;3.55;;
21330;SDS011;10824;51.632;4.950;2023-04-24T03:18:28;8.13;;;4.07;;
21330;SDS011;10824;51.632;4.950;2023-04-24T03:20:55;6.90;;;3.15;;
21330;SDS011;10824;51.632;4.950;2023-04-24T03:23:22;8.05;;;3.80;;
21330;SDS011;10824;51.632;4.950;2023-04-24T03:25:49;5.47;;;3.10;;
21330;SDS011;10824;51.632;4.950;2023-04-24T03:28:18;7.97;;;3.20;;
21330;SDS011;10824;51.632;4.950;2023-04-24T03:30:56;9.68;;;4.15;;
21330;SDS011;10824;51.632;4.950;2023-04-24T03:33:25;8.10;;;3.83;;
21330;SDS011;10824;51.632;4.950;2023-04-24T03:35:59;6.15;;;3.78;;
21330;SDS011;10824;51.632;4.950;2023-04-24T03:38:34;5.05;;;3.22;;
21330;SDS011;10824;51.632;4.950;2023-04-24T03:41:24;4.30;;;2.13;;
21330;SDS011;10824;51.632;4.950;2023-04-24T03:44:02;4.93;;;2.50;;
21330;SDS011;10824;51.632;4.950;2023-04-24T03:46:30;8.80;;;2.65;;
21330;SDS011;10824;51.632;4.950;2023-04-24T03:48:59;4.78;;;2.65;;
21330;SDS011;10824;51.632;4.950;2023-04-24T03:51:31;4.45;;;1.77;;
21330;SDS011;10824;51.632;4.950;2023-04-24T03:54:16;4.90;;;2.00;;
21330;SDS011;10824;51.632;4.950;2023-04-24T03:56:44;3.75;;;2.08;;
21330;SDS011;10824;51.632;4.950;2023-04-24T03:59:12;3.45;;;2.03;;
21330;SDS011;10824;51.632;4.950;2023-04-24T04:01:43;2.28;;;1.92;;
21330;SDS011;10824;51.632;4.950;2023-04-24T04:04:13;3.58;;;1.92;;
21330;SDS011;10824;51.632;4.950;2023-04-24T04:06:43;2.38;;;1.33;;
21330;SDS011;10824;51.632;4.950;2023-04-24T04:09:11;2.80;;;2.28;;
21330;SDS011;10824;51.632;4.950;2023-04-24T04:11:39;2.40;;;2.20;;
21330;SDS011;10824;51.632;4.950;2023-04-24T04:14:06;2.35;;;1.35;;
21330;SDS011;10824;51.632;4.950;2023-04-24T04:16:35;1.50;;;1.40;;
21330;SDS011;10824;51.632;4.950;2023-04-24T04:19:04;1.75;;;1.17;;
21330;SDS011;10824;51.632;4.950;2023-04-24T04:21:31;1.77;;;1.40;;
21330;SDS011;10824;51.632;4.950;2023-04-24T04:24:10;2.47;;;0.98;;
21330;SDS011;10824;51.632;4.950;2023-04-24T04:26:42;1.65;;;1.08;;
21330;SDS011;10824;51.632;4.950;2023-04-24T04:29:22;1.27;;;0.77;;
21330;SDS011;10824;51.632;4.950;2023-04-24T04:31:51;1.10;;;0.55;;
21330;SDS011;10824;51.632;4.950;2023-04-24T04:34:20;1.45;;;0.70;;
21330;SDS011;10824;51.632;4.950;2023-04-24T04:36:48;1.00;;;0.70;;
21330;SDS011;10824;51.632;4.950;2023-04-24T04:39:28;1.67;;;1.45;;
21330;SDS011;10824;51.632;4.950;2023-04-24T04:42:05;0.73;;;0.65;;
21330;SDS011;10824;51.632;4.950;2023-04-24T04:44:39;1.92;;;0.80;;
21330;SDS011;10824;51.632;4.950;2023-04-24T04:47:10;1.52;;;0.60;;
21330;SDS011;10824;51.632;4.950;2023-04-24T04:49:39;3.22;;;1.77;;
21330;SDS011;10824;51.632;4.950;2023-04-24T04:52:14;1.65;;;0.80;;
21330;SDS011;10824;51.632;4.950;2023-04-24T04:54:45;1.58;;;1.48;;
21330;SDS011;10824;51.632;4.950;2023-04-24T04:57:13;1.15;;;0.50;;
21330;SDS011;10824;51.632;4.950;2023-04-24T04:59:41;1.80;;;0.80;;
21330;SDS011;10824;51.632;4.950;2023-04-24T05:02:14;1.95;;;1.15;;
21330;SDS011;10824;51.632;4.950;2023-04-24T05:04:42;1.20;;;1.10;;
21330;SDS011;10824;51.632;4.950;2023-04-24T05:07:10;2.45;;;1.50;;
21330;SDS011;10824;51.632;4.950;2023-04-24T05:09:43;4.22;;;1.13;;
21330;SDS011;10824;51.632;4.950;2023-04-24T05:12:11;2.42;;;1.63;;
21330;SDS011;10824;51.632;4.950;2023-04-24T05:14:46;3.28;;;1.92;;
21330;SDS011;10824;51.632;4.950;2023-04-24T05:17:13;1.70;;;1.30;;
21330;SDS011;10824;51.632;4.950;2023-04-24T05:19:41;2.15;;;1.20;;
21330;SDS011;10824;51.632;4.950;2023-04-24T05:22:10;2.30;;;1.55;;
21330;SDS011;10824;51.632;4.950;2023-04-24T05:24:46;4.70;;;1.25;;
21330;SDS011;10824;51.632;4.950;2023-04-24T05:27:40;2.40;;;1.20;;
21330;SDS011;10824;51.632;4.950;2023-04-24T05:30:13;2.55;;;1.48;;
21330;SDS011;10824;51.632;4.950;2023-04-24T05:32:41;3.30;;;1.63;;
21330;SDS011;10824;51.632;4.950;2023-04-24T05:35:08;2.45;;;1.90;;
21330;SDS011;10824;51.632;4.950;2023-04-24T05:37:35;3.00;;;1.33;;
21330;SDS011;10824;51.632;4.950;2023-04-24T05:40:03;2.80;;;1.67;;
21330;SDS011;10824;51.632;4.950;2023-04-24T05:42:31;2.50;;;1.48;;
21330;SDS011;10824;51.632;4.950;2023-04-24T05:44:58;2.40;;;1.50;;
21330;SDS011;10824;51.632;4.950;2023-04-24T05:47:26;4.90;;;2.08;;
21330;SDS011;10824;51.632;4.950;2023-04-24T05:49:53;3.20;;;1.77;;
21330;SDS011;10824;51.632;4.950;2023-04-24T05:52:21;2.90;;;2.17;;
21330;SDS011;10824;51.632;4.950;2023-04-24T05:54:49;4.68;;;2.05;;
21330;SDS011;10824;51.632;4.950;2023-04-24T05:57:21;6.40;;;2.05;;
21330;SDS011;10824;51.632;4.950;2023-04-24T05:59:52;3.95;;;2.30;;
21330;SDS011;10824;51.632;4.950;2023-04-24T06:02:21;6.15;;;2.40;;
21330;SDS011;10824;51.632;4.950;2023-04-24T06:04:49;3.67;;;1.88;;
21330;SDS011;10824;51.632;4.950;2023-04-24T06:07:16;6.85;;;2.92;;
21330;SDS011;10824;51.632;4.950;2023-04-24T06:09:44;3.30;;;2.67;;
21330;SDS011;10824;51.632;4.950;2023-04-24T06:12:11;8.13;;;2.67;;
21330;SDS011;10824;51.632;4.950;2023-04-24T06:14:51;10.02;;;3.15;;
21330;SDS011;10824;51.632;4.950;2023-04-24T06:17:28;6.25;;;2.92;;
21330;SDS011;10824;51.632;4.950;2023-04-24T06:19:55;8.27;;;2.72;;
21330;SDS011;10824;51.632;4.950;2023-04-24T06:22:23;13.15;;;3.33;;
21330;SDS011;10824;51.632;4.950;2023-04-24T06:24:50;7.30;;;3.08;;
21330;SDS011;10824;51.632;4.950;2023-04-24T06:27:17;7.55;;;3.30;;
21330;SDS011;10824;51.632;4.950;2023-04-24T06:29:44;8.15;;;2.50;;
21330;SDS011;10824;51.632;4.950;2023-04-24T06:32:11;8.18;;;3.97;;
21330;SDS011;10824;51.632;4.950;2023-04-24T06:34:39;6.68;;;3.50;;
21330;SDS011;10824;51.632;4.950;2023-04-24T06:37:06;10.13;;;5.53;;
21330;SDS011;10824;51.632;4.950;2023-04-24T06:39:33;6.32;;;4.40;;
21330;SDS011;10824;51.632;4.950;2023-04-24T06:42:00;8.32;;;3.30;;
21330;SDS011;10824;51.632;4.950;2023-04-24T06:44:27;5.82;;;2.33;;
21330;SDS011;10824;51.632;4.950;2023-04-24T06:46:56;9.80;;;4.15;;
21330;SDS011;10824;51.632;4.950;2023-04-24T06:49:23;6.57;;;3.60;;
21330;SDS011;10824;51.632;4.950;2023-04-24T06:51:50;4.03;;;2.47;;
21330;SDS011;10824;51.632;4.950;2023-04-24T06:54:17;8.20;;;3.75;;
21330;SDS011;10824;51.632;4.950;2023-04-24T06:56:44;11.40;;;3.20;;
21330;SDS011;10824;51.632;4.950;2023-04-24T06:59:14;7.93;;;2.65;;
21330;SDS011;10824;51.632;4.950;2023-04-24T07:01:41;7.55;;;2.22;;
21330;SDS011;10824;51.632;4.950;2023-04-24T07:04:11;4.78;;;2.47;;
21330;SDS011;10824;51.632;4.950;2023-04-24T07:06:39;3.63;;;2.05;;
21330;SDS011;10824;51.632;4.950;2023-04-24T07:09:06;10.38;;;2.35;;
21330;SDS011;10824;51.632;4.950;2023-04-24T07:11:35;3.47;;;2.00;;
21330;SDS011;10824;51.632;4.950;2023-04-24T07:14:04;9.43;;;3.08;;
21330;SDS011;10824;51.632;4.950;2023-04-24T07:16:31;6.20;;;2.47;;
21330;SDS011;10824;51.632;4.950;2023-04-24T07:18:59;13.13;;;4.10;;
21330;SDS011;10824;51.632;4.950;2023-04-24T07:21:26;8.57;;;2.08;;
21330;SDS011;10824;51.632;4.950;2023-04-24T07:23:54;8.15;;;2.22;;
21330;SDS011;10824;51.632;4.950;2023-04-24T07:26:21;7.68;;;3.08;;
21330;SDS011;10824;51.632;4.950;2023-04-24T07:28:48;6.95;;;2.38;;
21330;SDS011;10824;51.632;4.950;2023-04-24T07:31:15;11.13;;;3.00;;
21330;SDS011;10824;51.632;4.950;2023-04-24T07:33:43;5.15;;;2.22;;
21330;SDS011;10824;51.632;4.950;2023-04-24T07:36:11;8.88;;;2.33;;
21330;SDS011;10824;51.632;4.950;2023-04-24T07:38:42;10.07;;;2.55;;
21330;SDS011;10824;51.632;4.950;2023-04-24T07:41:09;6.65;;;3.08;;
21330;SDS011;10824;51.632;4.950;2023-04-24T07:43:39;10.98;;;2.58;;
21330;SDS011;10824;51.632;4.950;2023-04-24T07:46:07;9.45;;;2.70;;
21330;SDS011;10824;51.632;4.950;2023-04-24T07:48:37;8.25;;;2.60;;
21330;SDS011;10824;51.632;4.950;2023-04-24T07:51:04;11.55;;;3.70;;
21330;SDS011;10824;51.632;4.950;2023-04-24T07:53:32;13.77;;;2.30;;
21330;SDS011;10824;51.632;4.950;2023-04-24T07:55:59;11.88;;;2.28;;
21330;SDS011;10824;51.632;4.950;2023-04-24T07:58:26;6.13;;;2.63;;
21330;SDS011;10824;51.632;4.950;2023-04-24T08:00:53;4.53;;;2.45;;
21330;SDS011;10824;51.632;4.950;2023-04-24T08:03:20;5.47;;;2.17;;
21330;SDS011;10824;51.632;4.950;2023-04-24T08:05:48;5.60;;;1.83;;
21330;SDS011;10824;51.632;4.950;2023-04-24T08:08:15;13.60;;;4.20;;
21330;SDS011;10824;51.632;4.950;2023-04-24T08:10:42;6.15;;;2.00;;
21330;SDS011;10824;51.632;4.950;2023-04-24T08:13:09;2.92;;;1.83;;
21330;SDS011;10824;51.632;4.950;2023-04-24T08:15:38;6.03;;;1.80;;
21330;SDS011;10824;51.632;4.950;2023-04-24T08:18:05;10.13;;;2.20;;
21330;SDS011;10824;51.632;4.950;2023-04-24T08:20:33;5.03;;;1.75;;
21330;SDS011;10824;51.632;4.950;2023-04-24T08:23:00;3.83;;;2.08;;
21330;SDS011;10824;51.632;4.950;2023-04-24T08:25:27;6.38;;;1.88;;
21330;SDS011;10824;51.632;4.950;2023-04-24T08:27:54;7.28;;;2.15;;
21330;SDS011;10824;51.632;4.950;2023-04-24T08:30:21;6.88;;;2.17;;
21330;SDS011;10824;51.632;4.950;2023-04-24T08:32:49;6.05;;;1.83;;
21330;SDS011;10824;51.632;4.950;2023-04-24T08:35:16;13.57;;;3.10;;
21330;SDS011;10824;51.632;4.950;2023-04-24T08:37:43;5.00;;;2.97;;
21330;SDS011;10824;51.632;4.950;2023-04-24T08:40:14;6.60;;;1.48;;
21330;SDS011;10824;51.632;4.950;2023-04-24T08:42:42;9.02;;;3.35;;
21330;SDS011;10824;51.632;4.950;2023-04-24T08:45:11;6.65;;;2.38;;
21330;SDS011;10824;51.632;4.950;2023-04-24T08:47:40;4.75;;;1.60;;
21330;SDS011;10824;51.632;4.950;2023-04-24T08:50:08;8.02;;;2.33;;
21330;SDS011;10824;51.632;4.950;2023-04-24T08:52:36;4.68;;;1.30;;
21330;SDS011;10824;51.632;4.950;2023-04-24T08:55:03;8.60;;;2.20;;
21330;SDS011;10824;51.632;4.950;2023-04-24T08:57:31;7.80;;;2.47;;
21330;SDS011;10824;51.632;4.950;2023-04-24T09:00:00;2.97;;;1.88;;
21330;SDS011;10824;51.632;4.950;2023-04-24T09:02:27;3.75;;;1.40;;
21330;SDS011;10824;51.632;4.950;2023-04-24T09:04:56;7.38;;;2.20;;
21330;SDS011;10824;51.632;4.950;2023-04-24T09:07:24;6.05;;;2.17;;
21330;SDS011;10824;51.632;4.950;2023-04-24T09:09:53;4.78;;;1.60;;
21330;SDS011;10824;51.632;4.950;2023-04-24T09:12:21;12.68;;;2.58;;
21330;SDS011;10824;51.632;4.950;2023-04-24T09:14:51;5.63;;;2.10;;
21330;SDS011;10824;51.632;4.950;2023-04-24T09:17:19;8.82;;;1.60;;
21330;SDS011;10824;51.632;4.950;2023-04-24T09:19:46;5.60;;;1.30;;
21330;SDS011;10824;51.632;4.950;2023-04-24T09:22:13;2.70;;;0.85;;
21330;SDS011;10824;51.632;4.950;2023-04-24T09:24:43;2.60;;;1.02;;
21330;SDS011;10824;51.632;4.950;2023-04-24T09:27:12;3.17;;;1.90;;
21330;SDS011;10824;51.632;4.950;2023-04-24T09:29:39;2.67;;;0.90;;
21330;SDS011;10824;51.632;4.950;2023-04-24T09:32:20;4.43;;;1.25;;
21330;SDS011;10824;51.632;4.950;2023-04-24T09:34:49;3.08;;;1.20;;
21330;SDS011;10824;51.632;4.950;2023-04-24T09:37:28;2.05;;;0.90;;
21330;SDS011;10824;51.632;4.950;2023-04-24T09:40:09;3.10;;;1.02;;
21330;SDS011;10824;51.632;4.950;2023-04-24T09:43:05;2.45;;;0.98;;
21330;SDS011;10824;51.632;4.950;2023-04-24T09:45:37;0.98;;;0.60;;
21330;SDS011;10824;51.632;4.950;2023-04-24T09:48:09;2.10;;;0.80;;
21330;SDS011;10824;51.632;4.950;2023-04-24T09:50:37;0.90;;;0.90;;
21330;SDS011;10824;51.632;4.950;2023-04-24T09:53:05;1.08;;;0.60;;
21330;SDS011;10824;51.632;4.950;2023-04-24T09:55:42;2.58;;;0.82;;
21330;SDS011;10824;51.632;4.950;2023-04-24T09:58:12;1.73;;;0.70;;
21330;SDS011;10824;51.632;4.950;2023-04-24T10:00:41;0.98;;;0.60;;
21330;SDS011;10824;51.632;4.950;2023-04-24T10:03:08;2.42;;;0.80;;
21330;SDS011;10824;51.632;4.950;2023-04-24T10:05:35;0.90;;;0.50;;
21330;SDS011;10824;51.632;4.950;2023-04-24T10:08:06;2.63;;;0.70;;
21330;SDS011;10824;51.632;4.950;2023-04-24T10:10:37;1.05;;;0.57;;
21330;SDS011;10824;51.632;4.950;2023-04-24T10:13:07;1.38;;;0.57;;
21330;SDS011;10824;51.632;4.950;2023-04-24T10:15:37;2.00;;;0.63;;
21330;SDS011;10824;51.632;4.950;2023-04-24T10:18:05;2.55;;;0.80;;
21330;SDS011;10824;51.632;4.950;2023-04-24T10:20:35;3.55;;;0.90;;
21330;SDS011;10824;51.632;4.950;2023-04-24T10:23:04;1.58;;;0.80;;
21330;SDS011;10824;51.632;4.950;2023-04-24T10:25:33;1.80;;;0.70;;
21330;SDS011;10824;51.632;4.950;2023-04-24T10:28:01;3.40;;;1.13;;
21330;SDS011;10824;51.632;4.950;2023-04-24T10:30:30;1.17;;;0.60;;
21330;SDS011;10824;51.632;4.950;2023-04-24T10:33:02;2.30;;;0.57;;
21330;SDS011;10824;51.632;4.950;2023-04-24T10:35:31;3.17;;;0.52;;
21330;SDS011;10824;51.632;4.950;2023-04-24T10:38:05;1.70;;;0.70;;
21330;SDS011;10824;51.632;4.950;2023-04-24T10:40:36;4.28;;;0.60;;
21330;SDS011;10824;51.632;4.950;2023-04-24T10:43:03;2.50;;;1.20;;
21330;SDS011;10824;51.632;4.950;2023-04-24T10:45:34;7.63;;;0.60;;
21330;SDS011;10824;51.632;4.950;2023-04-24T10:48:03;0.90;;;0.55;;
21330;SDS011;10824;51.632;4.950;2023-04-24T10:50:44;2.05;;;0.95;;
21330;SDS011;10824;51.632;4.950;2023-04-24T10:53:19;4.10;;;0.60;;
21330;SDS011;10824;51.632;4.950;2023-04-24T10:55:50;1.35;;;0.60;;
21330;SDS011;10824;51.632;4.950;2023-04-24T10:58:23;3.42;;;0.80;;
21330;SDS011;10824;51.632;4.950;2023-04-24T11:01:01;1.45;;;0.73;;
21330;SDS011;10824;51.632;4.950;2023-04-24T11:03:30;2.38;;;0.70;;
21330;SDS011;10824;51.632;4.950;2023-04-24T11:06:04;1.90;;;0.50;;
21330;SDS011;10824;51.632;4.950;2023-04-24T11:11:09;1.77;;;0.73;;
21330;SDS011;10824;51.632;4.950;2023-04-24T11:16:23;2.08;;;0.77;;
21330;SDS011;10824;51.632;4.950;2023-04-24T11:19:08;1.08;;;0.60;;
21330;SDS011;10824;51.632;4.950;2023-04-24T11:21:43;0.82;;;0.52;;
21330;SDS011;10824;51.632;4.950;2023-04-24T11:24:25;1.75;;;0.60;;
21330;SDS011;10824;51.632;4.950;2023-04-24T11:27:00;0.80;;;0.60;;
21330;SDS011;10824;51.632;4.950;2023-04-24T11:30:02;1.70;;;0.63;;
21330;SDS011;10824;51.632;4.950;2023-04-24T11:35:00;0.88;;;0.50;;
21330;SDS011;10824;51.632;4.950;2023-04-24T11:37:37;1.00;;;0.80;;
21330;SDS011;10824;51.632;4.950;2023-04-24T11:40:10;1.33;;;0.70;;
21330;SDS011;10824;51.632;4.950;2023-04-24T11:42:39;1.33;;;0.85;;
21330;SDS011;10824;51.632;4.950;2023-04-24T11:45:14;1.33;;;0.68;;
21330;SDS011;10824;51.632;4.950;2023-04-24T11:47:42;1.58;;;0.60;;
21330;SDS011;10824;51.632;4.950;2023-04-24T11:50:11;2.92;;;0.70;;
21330;SDS011;10824;51.632;4.950;2023-04-24T11:52:40;1.63;;;0.75;;
21330;SDS011;10824;51.632;4.950;2023-04-24T11:57:46;2.58;;;0.85;;
21330;SDS011;10824;51.632;4.950;2023-04-24T12:00:21;2.67;;;0.73;;
21330;SDS011;10824;51.632;4.950;2023-04-24T12:03:03;2.95;;;0.60;;
21330;SDS011;10824;51.632;4.950;2023-04-24T12:05:32;3.33;;;0.73;;
21330;SDS011;10824;51.632;4.950;2023-04-24T12:08:01;1.60;;;0.50;;
21330;SDS011;10824;51.632;4.950;2023-04-24T12:10:29;0.70;;;0.50;;
21330;SDS011;10824;51.632;4.950;2023-04-24T12:12:57;5.00;;;0.68;;
21330;SDS011;10824;51.632;4.950;2023-04-24T12:15:26;1.55;;;0.65;;
21330;SDS011;10824;51.632;4.950;2023-04-24T12:17:54;2.88;;;0.50;;
21330;SDS011;10824;51.632;4.950;2023-04-24T12:20:28;1.67;;;0.50;;
21330;SDS011;10824;51.632;4.950;2023-04-24T12:22:57;3.13;;;0.70;;
21330;SDS011;10824;51.632;4.950;2023-04-24T12:25:28;1.92;;;0.50;;
21330;SDS011;10824;51.632;4.950;2023-04-24T12:30:30;1.08;;;0.55;;
21330;SDS011;10824;51.632;4.950;2023-04-24T12:32:58;0.60;;;0.60;;
21330;SDS011;10824;51.632;4.950;2023-04-24T12:35:27;0.85;;;0.43;;
21330;SDS011;10824;51.632;4.950;2023-04-24T12:37:56;1.30;;;0.40;;
21330;SDS011;10824;51.632;4.950;2023-04-24T12:40:42;3.22;;;1.20;;
21330;SDS011;10824;51.632;4.950;2023-04-24T12:43:16;1.58;;;0.60;;
21330;SDS011;10824;51.632;4.950;2023-04-24T12:45:47;1.25;;;0.63;;
21330;SDS011;10824;51.632;4.950;2023-04-24T12:48:14;1.20;;;0.60;;
21330;SDS011;10824;51.632;4.950;2023-04-24T12:50:42;0.90;;;0.50;;
21330;SDS011;10824;51.632;4.950;2023-04-24T12:53:12;1.38;;;0.80;;
21330;SDS011;10824;51.632;4.950;2023-04-24T12:55:43;2.85;;;0.60;;
21330;SDS011;10824;51.632;4.950;2023-04-24T12:58:11;0.90;;;0.60;;
21330;SDS011;10824;51.632;4.950;2023-04-24T13:00:38;0.85;;;0.57;;
21330;SDS011;10824;51.632;4.950;2023-04-24T13:03:06;2.80;;;0.77;;
21330;SDS011;10824;51.632;4.950;2023-04-24T13:05:33;2.75;;;0.60;;
21330;SDS011;10824;51.632;4.950;2023-04-24T13:08:00;1.95;;;0.80;;
21330;SDS011;10824;51.632;4.950;2023-04-24T13:10:27;2.30;;;0.77;;
21330;SDS011;10824;51.632;4.950;2023-04-24T13:12:55;9.68;;;2.13;;
21330;SDS011;10824;51.632;4.950;2023-04-24T13:15:22;1.38;;;0.50;;
21330;SDS011;10824;51.632;4.950;2023-04-24T13:17:49;1.48;;;0.90;;
21330;SDS011;10824;51.632;4.950;2023-04-24T13:20:17;3.70;;;0.60;;
21330;SDS011;10824;51.632;4.950;2023-04-24T13:22:44;1.38;;;0.57;;
21330;SDS011;10824;51.632;4.950;2023-04-24T13:25:11;0.65;;;0.50;;
21330;SDS011;10824;51.632;4.950;2023-04-24T13:27:38;1.85;;;0.50;;
21330;SDS011;10824;51.632;4.950;2023-04-24T13:30:06;0.55;;;0.55;;
21330;SDS011;10824;51.632;4.950;2023-04-24T13:32:34;1.35;;;0.80;;
21330;SDS011;10824;51.632;4.950;2023-04-24T13:35:01;1.08;;;0.55;;
21330;SDS011;10824;51.632;4.950;2023-04-24T13:37:29;2.33;;;0.73;;
21330;SDS011;10824;51.632;4.950;2023-04-24T13:39:57;3.45;;;0.90;;
21330;SDS011;10824;51.632;4.950;2023-04-24T13:42:24;3.70;;;1.00;;
21330;SDS011;10824;51.632;4.950;2023-04-24T13:44:52;9.38;;;1.67;;
21330;SDS011;10824;51.632;4.950;2023-04-24T13:47:20;0.60;;;0.60;;
21330;SDS011;10824;51.632;4.950;2023-04-24T13:49:47;3.22;;;1.27;;
21330;SDS011;10824;51.632;4.950;2023-04-24T13:52:14;1.88;;;0.85;;
21330;SDS011;10824;51.632;4.950;2023-04-24T13:54:42;1.23;;;0.90;;
21330;SDS011;10824;51.632;4.950;2023-04-24T13:57:09;1.88;;;0.77;;
21330;SDS011;10824;51.632;4.950;2023-04-24T13:59:38;2.75;;;0.60;;
21330;SDS011;10824;51.632;4.950;2023-04-24T14:02:05;3.40;;;0.98;;
21330;SDS011;10824;51.632;4.950;2023-04-24T14:04:33;2.40;;;0.95;;
21330;SDS011;10824;51.632;4.950;2023-04-24T14:07:00;3.67;;;0.98;;
21330;SDS011;10824;51.632;4.950;2023-04-24T14:09:28;1.83;;;0.73;;
21330;SDS011;10824;51.632;4.950;2023-04-24T14:11:55;3.75;;;1.13;;
21330;SDS011;10824;51.632;4.950;2023-04-24T14:14:22;2.17;;;1.00;;
21330;SDS011;10824;51.632;4.950;2023-04-24T14:16:49;3.00;;;0.90;;
21330;SDS011;10824;51.632;4.950;2023-04-24T14:19:17;4.05;;;1.67;;
21330;SDS011;10824;51.632;4.950;2023-04-24T14:21:44;6.63;;;1.02;;
21330;SDS011;10824;51.632;4.950;2023-04-24T14:24:11;3.92;;;1.20;;
21330;SDS011;10824;51.632;4.950;2023-04-24T14:26:38;4.20;;;1.00;;
21330;SDS011;10824;51.632;4.950;2023-04-24T14:29:05;2.60;;;1.00;;
21330;SDS011;10824;51.632;4.950;2023-04-24T14:31:40;2.20;;;0.90;;
21330;SDS011;10824;51.632;4.950;2023-04-24T14:34:08;1.83;;;0.73;;
21330;SDS011;10824;51.632;4.950;2023-04-24T14:36:35;3.13;;;0.88;;
21330;SDS011;10824;51.632;4.950;2023-04-24T14:39:02;3.92;;;0.70;;
21330;SDS011;10824;51.632;4.950;2023-04-24T14:41:34;3.55;;;0.88;;
21330;SDS011;10824;51.632;4.950;2023-04-24T14:44:02;4.63;;;1.30;;
21330;SDS011;10824;51.632;4.950;2023-04-24T14:46:30;3.15;;;1.00;;
21330;SDS011;10824;51.632;4.950;2023-04-24T14:48:58;3.22;;;0.88;;
21330;SDS011;10824;51.632;4.950;2023-04-24T14:51:25;1.88;;;1.17;;
21330;SDS011;10824;51.632;4.950;2023-04-24T14:53:53;2.92;;;1.05;;
21330;SDS011;10824;51.632;4.950;2023-04-24T14:56:20;4.18;;;1.38;;
21330;SDS011;10824;51.632;4.950;2023-04-24T14:58:48;3.10;;;1.38;;
21330;SDS011;10824;51.632;4.950;2023-04-24T15:01:15;3.28;;;1.30;;
21330;SDS011;10824;51.632;4.950;2023-04-24T15:03:43;2.42;;;1.20;;
21330;SDS011;10824;51.632;4.950;2023-04-24T15:06:11;2.33;;;1.25;;
21330;SDS011;10824;51.632;4.950;2023-04-24T15:08:39;1.98;;;1.10;;
21330;SDS011;10824;51.632;4.950;2023-04-24T15:11:06;1.80;;;1.30;;
21330;SDS011;10824;51.632;4.950;2023-04-24T15:13:33;4.28;;;1.40;;